Ordhonikidzeabad, Tajikistan
Current Conditions -  °F | °C
As of 8:30 PM on Friday 24 Oct 2014 (Local Time) from UTDD Reporting Station
Broken Clouds Broken Clouds  
Wind Chill: 59°   Ceiling: 20000
Heat Index: 59°   Visibility: 4mi
Dew Point: 52°   Wind: 0mph
Humidity: 77%   Direction: NA
Pressure: 29.97"   Gusts: NA
Location:  38.57°N, 69.02°E
Report Text: UTDD 241530Z 00000MPS 6000 BKN200 15/11 Q1015 09CLRD70 NOSIGRMK QFE693/0925
Loading
Personal Weather Stations






























Interactive Weather Map
Tropical Storm Tracking
New forecast layout! Learn more

10-Day Weather Forecast

Advertisements
Track Severe Weather on mobile